Time;durP1;ratioP1;P1;durP2;ratioP2;P2;SDS_P1;SDS_P2;PMS_P1;PMS_P2;Temp;Humidity;BMP_temperature;BMP_pressure;BME280_temperature;BME280_humidity;BME280_pressure;Samples;Min_cycle;Max_cycle;Signal;HPM_P1;HPM_P2
2022/06/08 00:00:12;;;;;;;2.05;1.50;;;;;;;16.30;54.00;100506.94;7394943;19;20015;-69
2022/06/08 00:02:43;;;;;;;3.72;1.67;;;;;;;16.26;54.30;100502.75;7394587;19;20053;-69
2022/06/08 00:05:15;;;;;;;3.33;1.92;;;;;;;16.21;54.33;100496.81;7395937;19;20022;-69
2022/06/08 00:07:43;;;;;;;1.50;1.40;;;;;;;16.17;54.40;100500.56;7396358;19;20040;-69
2022/06/08 00:10:12;;;;;;;2.20;1.30;;;;;;;16.13;54.87;100505.97;7393863;19;20081;-69
2022/06/08 00:12:41;;;;;;;3.08;1.67;;;;;;;16.11;55.10;100499.06;7394511;19;20022;-69
2022/06/08 00:15:11;;;;;;;2.10;1.80;;;;;;;16.09;55.01;100499.13;7395832;19;20510;-68
2022/06/08 00:17:40;;;;;;;2.75;1.40;;;;;;;16.06;55.19;100501.06;7396128;19;20018;-69
2022/06/08 00:20:11;;;;;;;2.83;1.70;;;;;;;16.02;55.15;100495.06;7394551;19;20556;-69
2022/06/08 00:22:43;;;;;;;2.40;1.80;;;;;;;15.99;55.20;100487.28;7395062;19;20018;-69
2022/06/08 00:25:13;;;;;;;5.68;1.63;;;;;;;15.96;55.36;100487.41;7394723;19;20536;-69
2022/06/08 00:27:41;;;;;;;7.97;2.20;;;;;;;15.92;55.70;100489.38;7395989;19;20011;-69
2022/06/08 00:30:12;;;;;;;9.77;2.35;;;;;;;15.89;55.98;100491.31;7395483;19;20030;-69
2022/06/08 00:32:41;;;;;;;4.82;2.47;;;;;;;15.86;55.92;100499.38;7394667;19;20363;-69
2022/06/08 00:35:11;;;;;;;5.80;2.35;;;;;;;15.82;56.27;100496.03;7395628;19;20085;-69
2022/06/08 00:37:42;;;;;;;4.63;2.35;;;;;;;15.79;56.54;100497.00;7394143;19;20019;-69
2022/06/08 00:40:13;;;;;;;9.70;2.63;;;;;;;15.75;56.55;100490.16;7393607;19;20379;-69
2022/06/08 00:42:43;;;;;;;4.65;2.58;;;;;;;15.72;56.76;100495.59;7393859;19;20015;-69
2022/06/08 00:45:14;;;;;;;3.78;2.40;;;;;;;15.69;56.91;100487.78;7393666;19;20018;-69
2022/06/08 00:47:47;;;;;;;5.13;2.65;;;;;;;15.65;56.95;100488.88;7393804;19;20086;-69
2022/06/08 00:50:20;;;;;;;5.22;2.30;;;;;;;15.62;57.16;100489.88;7393027;19;20087;-68
2022/06/08 00:52:52;;;;;;;4.10;2.73;;;;;;;15.59;57.18;100490.00;7393401;19;20078;-69
2022/06/08 00:55:25;;;;;;;2.63;2.30;;;;;;;15.56;57.38;100486.66;7393535;19;20039;-69
2022/06/08 00:57:58;;;;;;;3.67;2.47;;;;;;;15.52;57.48;100485.94;7394769;19;20509;-69
2022/06/08 01:00:30;;;;;;;3.90;2.38;;;;;;;15.50;57.54;100484.31;7394128;19;20040;-69
2022/06/08 01:02:59;;;;;;;3.35;2.35;;;;;;;15.45;57.60;100485.34;7393395;19;20362;-69
2022/06/08 01:05:31;;;;;;;2.92;2.17;;;;;;;15.42;57.57;100487.31;7394801;19;20090;-69
2022/06/08 01:08:06;;;;;;;3.97;2.13;;;;;;;15.39;57.86;100479.50;7396482;19;20484;-68
2022/06/08 01:10:44;;;;;;;3.75;2.10;;;;;;;15.32;57.92;100474.50;7402667;19;20018;-70
2022/06/08 01:13:13;;;;;;;3.72;2.22;;;;;;;15.32;58.04;100482.41;7399915;19;20027;-70
2022/06/08 01:15:43;;;;;;;3.13;2.03;;;;;;;15.30;58.37;100472.84;7398739;19;20484;-69
2022/06/08 01:18:12;;;;;;;3.60;1.80;;;;;;;15.27;58.12;100470.34;7398678;19;20011;-70
2022/06/08 01:20:46;;;;;;;2.60;2.17;;;;;;;15.22;58.21;100469.72;7399662;19;20070;-70
2022/06/08 01:23:18;;;;;;;2.22;2.00;;;;;;;15.19;58.63;100461.91;7399205;19;20031;-70
2022/06/08 01:26:16;;;;;;;3.42;1.75;;;;;;;15.15;58.36;100464.69;7400191;19;20027;-70
2022/06/08 01:28:52;;;;;;;2.30;2.10;;;;;;;15.09;58.56;100458.81;7401223;19;20019;-69
2022/06/08 01:31:31;;;;;;;3.08;2.25;;;;;;;15.05;58.92;100455.47;7401487;19;20018;-69
2022/06/08 01:34:08;;;;;;;3.08;2.28;;;;;;;15.02;58.79;100455.59;7401707;19;20070;-69
2022/06/08 01:36:52;;;;;;;3.20;2.00;;;;;;;14.97;59.12;100455.84;7400910;19;20015;-70
2022/06/08 01:39:35;;;;;;;3.78;2.20;;;;;;;14.94;59.19;100455.09;7400811;19;21788;-69
2022/06/08 01:42:20;;;;;;;7.00;2.25;;;;;;;14.89;59.21;100463.22;7398091;19;20509;-68
2022/06/08 01:47:57;;;;;;;3.95;2.40;;;;;;;14.78;59.20;100461.03;7400955;19;20014;-67
2022/06/08 01:50:32;;;;;;;4.03;2.05;;;;;;;14.73;59.22;100465.66;7400839;19;20435;-67
2022/06/08 01:53:05;;;;;;;3.47;1.92;;;;;;;14.68;59.40;100465.00;7398222;19;20039;-67
2022/06/08 01:55:47;;;;;;;1.80;1.70;;;;;;;14.61;59.44;100463.56;7400818;19;20036;-67
2022/06/08 01:58:26;;;;;;;2.80;2.20;;;;;;;14.60;59.84;100462.69;7398505;19;20035;-67
2022/06/08 02:01:05;;;;;;;4.28;2.28;;;;;;;14.57;59.56;100461.94;7397891;19;20019;-67
2022/06/08 02:03:39;;;;;;;2.40;2.20;;;;;;;14.53;59.67;100463.84;7400033;19;20517;-66
2022/06/08 02:06:10;;;;;;;;;;;;;;;14.50;59.73;100459.56;7398341;19;20015;-66
2022/06/08 02:08:45;;;;;;;4.28;2.47;;;;;;;14.46;59.71;100465.06;7399914;19;20364;-66
2022/06/08 02:11:24;;;;;;;4.95;2.47;;;;;;;14.43;59.84;100460.78;7398359;19;20358;-68
2022/06/08 02:13:56;;;;;;;3.78;2.42;;;;;;;14.42;59.92;100458.16;7399174;19;20028;-66
2022/06/08 02:16:29;;;;;;;4.43;2.72;;;;;;;14.39;60.36;100453.88;7398577;19;20074;-66
2022/06/08 02:19:02;;;;;;;4.13;2.67;;;;;;;14.37;60.14;100450.47;7395670;19;20027;-67
2022/06/08 02:21:36;;;;;;;3.17;2.15;;;;;;;14.35;60.34;100452.31;7396171;19;20015;-66
2022/06/08 02:24:14;;;;;;;3.45;2.40;;;;;;;14.32;60.25;100452.44;7399974;19;20026;-66
2022/06/08 02:26:49;;;;;;;2.88;2.40;;;;;;;14.30;60.46;100452.50;7396900;19;20006;-67
2022/06/08 02:29:22;;;;;;;1.92;1.83;;;;;;;14.28;60.67;100453.47;7397387;19;20099;-66
2022/06/08 02:31:56;;;;;;;2.83;2.30;;;;;;;14.25;60.48;100458.91;7398810;19;20018;-71
2022/06/08 02:34:31;;;;;;;3.42;2.45;;;;;;;14.23;60.75;100453.69;7397043;19;20131;-67
2022/06/08 02:37:07;;;;;;;4.28;2.40;;;;;;;14.20;60.81;100453.78;7398265;19;20078;-67
2022/06/08 02:39:42;;;;;;;4.50;2.70;;;;;;;14.18;61.12;100453.88;7396505;19;20025;-68
2022/06/08 02:42:17;;;;;;;2.50;2.30;;;;;;;14.15;60.95;100446.09;7396978;19;20043;-68
2022/06/08 02:44:48;;;;;;;3.17;2.50;;;;;;;14.13;60.98;100452.34;7399466;19;20022;-68
2022/06/08 02:47:29;;;;;;;3.28;2.47;;;;;;;14.11;61.41;100451.56;7399024;19;20488;-68
2022/06/08 02:49:58;;;;;;;3.15;2.42;;;;;;;14.09;61.42;100456.03;7399207;19;20018;-68
2022/06/08 02:52:28;;;;;;;3.70;2.80;;;;;;;14.03;61.70;100443.97;7397103;19;20086;-68
2022/06/08 02:54:57;;;;;;;2.78;2.42;;;;;;;14.00;61.68;100457.25;7398269;19;20074;-67
2022/06/08 02:57:38;;;;;;;3.40;2.83;;;;;;;13.96;62.05;100455.66;7398506;19;20078;-67
2022/06/08 03:00:13;;;;;;;3.10;2.80;;;;;;;13.90;62.03;100451.50;7397513;19;20508;-67
2022/06/08 03:02:47;;;;;;;2.38;2.17;;;;;;;13.84;62.24;100454.41;7396298;19;20439;-67
2022/06/08 03:05:22;;;;;;;4.93;2.67;;;;;;;13.80;62.34;100447.50;7397916;19;20017;-68
2022/06/08 03:07:54;;;;;;;3.08;2.55;;;;;;;13.76;62.67;100452.06;7397833;19;20484;-68
2022/06/08 03:10:24;;;;;;;2.50;2.30;;;;;;;13.74;62.61;100450.41;7396514;19;20086;-68
2022/06/08 03:13:02;;;;;;;3.90;2.75;;;;;;;13.72;62.81;100452.25;7395940;19;20092;-68
2022/06/08 03:15:31;;;;;;;5.13;2.30;;;;;;;13.68;62.66;100444.44;7398310;19;20026;-67
2022/06/08 03:17:59;;;;;;;2.88;2.60;;;;;;;13.67;63.07;100452.41;7397240;19;20014;-67
2022/06/08 03:20:29;;;;;;;7.28;3.88;;;;;;;13.66;63.12;100450.69;7395670;19;20022;-67
2022/06/08 03:22:58;;;;;;;3.35;2.88;;;;;;;13.65;63.34;100449.00;7395748;19;20041;-67
2022/06/08 03:25:27;;;;;;;3.75;2.90;;;;;;;13.65;63.35;100449.00;7394802;19;20484;-68
2022/06/08 03:27:58;;;;;;;5.03;2.97;;;;;;;13.64;63.51;100452.53;7395054;19;20043;-67
2022/06/08 03:30:28;;;;;;;3.38;3.08;;;;;;;13.65;63.62;100454.28;7396951;19;20031;-67
2022/06/08 03:32:56;;;;;;;3.38;3.05;;;;;;;13.66;63.65;100458.59;7395057;19;20023;-67
2022/06/08 03:35:25;;;;;;;3.28;2.85;;;;;;;13.66;63.53;100454.19;7396571;19;20036;-67
2022/06/08 03:37:53;;;;;;;3.35;3.05;;;;;;;13.68;63.68;100456.78;7396179;19;20027;-67
2022/06/08 03:40:22;;;;;;;2.90;2.70;;;;;;;13.70;63.69;100452.31;7395502;19;20018;-67
2022/06/08 03:42:50;;;;;;;4.50;2.63;;;;;;;13.73;63.88;100446.91;7395193;19;20070;-67
2022/06/08 03:45:22;;;;;;;2.78;2.53;;;;;;;13.77;63.79;100451.13;7396649;19;20014;-67
2022/06/08 03:47:52;;;;;;;5.68;2.90;;;;;;;13.82;63.75;100448.31;7396608;19;20022;-67
2022/06/08 03:50:24;;;;;;;5.13;3.00;;;;;;;13.89;63.84;100448.91;7395976;19;20011;-68
2022/06/08 03:52:57;;;;;;;3.45;3.15;;;;;;;13.94;63.61;100453.09;7395065;19;20027;-67
2022/06/08 03:55:28;;;;;;;5.30;3.20;;;;;;;14.00;63.63;100451.97;7394348;19;20480;-68
2022/06/08 03:57:56;;;;;;;5.80;3.08;;;;;;;14.07;63.70;100448.19;7395942;19;20023;-67
2022/06/08 04:00:28;;;;;;;3.65;3.20;;;;;;;14.13;63.99;100453.22;7394152;19;20022;-67
2022/06/08 04:02:57;;;;;;;4.65;2.78;;;;;;;14.21;63.66;100452.03;7394067;19;20362;-67
2022/06/08 04:05:26;;;;;;;4.07;3.28;;;;;;;14.28;63.76;100456.13;7393726;19;20014;-67
2022/06/08 04:07:55;;;;;;;4.03;2.78;;;;;;;14.36;63.66;100453.19;7395063;19;20362;-67
2022/06/08 04:10:23;;;;;;;3.17;2.80;;;;;;;14.43;63.57;100451.97;7394969;19;20011;-67
2022/06/08 04:12:52;;;;;;;4.95;3.63;;;;;;;14.51;63.50;100452.53;7393702;19;20018;-67
2022/06/08 04:18:04;;;;;;;4.65;2.92;;;;;;;14.68;63.47;100448.31;7393325;19;20018;-67
2022/06/08 04:20:32;;;;;;;3.95;2.92;;;;;;;14.76;63.38;100451.47;7393685;19;20018;-68
2022/06/08 04:23:01;;;;;;;5.97;2.85;;;;;;;14.83;63.23;100455.56;7393766;19;20019;-67
2022/06/08 04:25:30;;;;;;;38.42;23.95;;;;;;;14.90;62.99;100458.78;7393134;19;20018;-67
2022/06/08 04:27:59;;;;;;;4.07;3.40;;;;;;;14.97;62.75;100457.59;7393607;19;20037;-67
2022/06/08 04:30:28;;;;;;;3.25;2.92;;;;;;;15.03;62.83;100464.41;7393193;19;20018;-67
2022/06/08 04:32:56;;;;;;;3.97;2.97;;;;;;;15.08;62.65;100457.97;7392145;19;20014;-67
2022/06/08 04:35:27;;;;;;;4.47;2.80;;;;;;;15.13;62.66;100450.69;7394177;19;20018;-68
2022/06/08 04:37:56;;;;;;;5.03;2.65;;;;;;;15.19;62.31;100459.25;7395167;19;20022;-67
2022/06/08 04:40:25;;;;;;;4.32;2.70;;;;;;;15.23;62.20;100450.28;7392833;19;20039;-67
2022/06/08 04:42:54;;;;;;;4.13;2.88;;;;;;;15.29;62.09;100447.34;7390766;19;20480;-67
2022/06/08 04:45:23;;;;;;;4.13;2.53;;;;;;;15.32;62.20;100449.84;7395500;19;20027;-67
2022/06/08 04:47:52;;;;;;;4.95;2.80;;;;;;;15.35;61.88;100448.84;7394235;19;20480;-67
2022/06/08 04:50:21;;;;;;;3.97;2.75;;;;;;;15.37;61.81;100445.22;7392462;19;20100;-67
2022/06/08 04:52:52;;;;;;;4.30;2.38;;;;;;;15.41;61.95;100438.00;7392386;19;20022;-67
2022/06/08 04:55:22;;;;;;;5.35;2.50;;;;;;;15.43;61.84;100437.00;7395135;19;20094;-67
2022/06/08 04:57:51;;;;;;;3.28;2.90;;;;;;;15.44;61.83;100436.06;7391541;19;20018;-67
2022/06/08 05:00:21;;;;;;;3.15;2.75;;;;;;;15.46;61.54;100434.19;7391866;19;20022;-67
2022/06/08 05:02:52;;;;;;;3.65;2.28;;;;;;;15.46;61.75;100436.84;7392819;19;20483;-67
2022/06/08 05:05:23;;;;;;;7.50;3.60;;;;;;;15.47;61.88;100428.00;7393046;19;20022;-67
2022/06/08 05:07:56;;;;;;;4.32;3.05;;;;;;;15.50;61.98;100437.56;7390624;19;20018;-68
2022/06/08 05:10:26;;;;;;;4.25;2.65;;;;;;;15.54;62.30;100440.91;7391591;19;20039;-67
2022/06/08 05:12:55;;;;;;;4.32;2.83;;;;;;;15.57;62.20;100443.41;7391055;19;20035;-68
2022/06/08 05:15:27;;;;;;;4.63;2.97;;;;;;;15.60;62.27;100438.00;7391577;19;20026;-66
2022/06/08 05:17:57;;;;;;;3.17;2.60;;;;;;;15.62;62.19;100428.22;7391862;19;20090;-67
2022/06/08 05:20:32;;;;;;;11.55;2.85;;;;;;;15.67;62.25;100428.84;7389080;19;20019;-67
2022/06/08 05:23:14;;;;;;;3.50;2.80;;;;;;;15.71;63.03;100425.09;7391527;19;20051;-67
2022/06/08 05:25:44;;;;;;;5.28;2.78;;;;;;;15.75;62.50;100431.97;7391457;19;20006;-66
2022/06/08 05:28:14;;;;;;;3.47;2.30;;;;;;;15.78;62.33;100430.94;7391466;19;20035;-66
2022/06/08 05:30:44;;;;;;;3.65;2.63;;;;;;;15.83;62.69;100430.75;7391186;19;20006;-66
2022/06/08 05:33:14;;;;;;;4.05;2.50;;;;;;;15.89;62.42;100439.25;7391096;19;20026;-67
2022/06/08 05:35:42;;;;;;;2.63;2.28;;;;;;;15.94;62.50;100425.81;7391152;19;20082;-67
2022/06/08 05:38:13;;;;;;;3.78;2.80;;;;;;;15.99;62.59;100422.94;7392730;19;20294;-68
2022/06/08 05:40:42;;;;;;;5.97;2.63;;;;;;;16.04;62.73;100424.41;7391174;19;20032;-68
2022/06/08 05:43:14;;;;;;;3.80;2.65;;;;;;;16.11;62.48;100424.97;7390353;19;20041;-66
2022/06/08 05:45:43;;;;;;;4.50;2.85;;;;;;;16.18;62.46;100429.00;7393007;19;20350;-67
2022/06/08 05:48:12;;;;;;;2.88;2.03;;;;;;;16.25;62.71;100429.56;7390689;19;20027;-67
2022/06/08 05:50:41;;;;;;;12.40;2.40;;;;;;;16.32;62.58;100427.47;7392917;19;20015;-67
2022/06/08 05:53:15;;;;;;;5.78;2.08;;;;;;;16.38;62.99;100430.66;7391353;19;20099;-67
2022/06/08 05:55:45;;;;;;;6.18;2.65;;;;;;;16.46;62.58;100440.84;7398349;19;20015;-67
2022/06/08 05:58:14;;;;;;;2.40;2.17;;;;;;;16.52;62.65;100434.41;7396678;19;20448;-66
2022/06/08 06:00:44;;;;;;;3.63;2.80;;;;;;;16.59;62.62;100438.41;7399026;19;20035;-66
2022/06/08 06:03:13;;;;;;;5.55;2.60;;;;;;;16.65;62.83;100432.81;7396857;19;20372;-67
2022/06/08 06:05:43;;;;;;;3.33;3.00;;;;;;;16.73;62.79;100435.94;7399436;19;20022;-66
2022/06/08 06:08:16;;;;;;;7.82;3.00;;;;;;;16.82;62.70;100436.38;7398684;19;20025;-67
2022/06/08 06:10:47;;;;;;;6.40;3.00;;;;;;;16.89;62.98;100435.13;7399545;19;20018;-67
2022/06/08 06:13:18;;;;;;;4.30;3.20;;;;;;;16.93;62.58;100426.97;7397053;19;20070;-66
2022/06/08 06:15:47;;;;;;;3.10;2.80;;;;;;;17.04;62.67;100433.47;7396551;19;20081;-67
2022/06/08 06:18:16;;;;;;;3.08;2.78;;;;;;;17.10;62.68;100430.50;7398001;19;20008;-67
2022/06/08 06:20:45;;;;;;;3.33;2.88;;;;;;;17.17;62.89;100434.50;7396169;19;20011;-65
2022/06/08 06:23:17;;;;;;;3.70;3.00;;;;;;;17.24;62.86;100435.03;7395987;19;20536;-66
2022/06/08 06:25:45;;;;;;;5.55;2.78;;;;;;;17.31;62.66;100433.75;7397454;19;20014;-66
2022/06/08 06:28:14;;;;;;;5.25;2.70;;;;;;;17.36;62.35;100423.78;7397012;19;20086;-66
2022/06/08 06:30:42;;;;;;;2.88;2.45;;;;;;;17.44;62.40;100426.00;7395321;19;20426;-67
2022/06/08 06:33:12;;;;;;;5.00;3.00;;;;;;;17.52;62.41;100428.22;7396950;19;20074;-68
2022/06/08 06:35:41;;;;;;;4.20;2.42;;;;;;;17.59;62.43;100425.13;7399604;19;20015;-67
2022/06/08 06:38:10;;;;;;;2.80;2.40;;;;;;;17.66;62.34;100430.09;7398328;19;20018;-67
2022/06/08 06:40:41;;;;;;;2.67;2.33;;;;;;;17.73;62.17;100437.63;7395975;19;20014;-67
2022/06/08 06:43:13;;;;;;;5.07;2.65;;;;;;;17.80;62.30;100426.66;7396768;19;20035;-66
2022/06/08 06:45:41;;;;;;;5.40;2.92;;;;;;;17.87;61.89;100433.34;7396682;19;20010;-66
2022/06/08 06:48:10;;;;;;;6.53;4.65;;;;;;;17.91;61.95;100425.09;7395782;19;20015;-66
2022/06/08 06:50:39;;;;;;;5.47;3.65;;;;;;;18.03;61.78;100428.88;7395684;19;20033;-66
2022/06/08 06:53:07;;;;;;;5.07;2.40;;;;;;;18.11;61.74;100432.88;7395766;19;20485;-67
2022/06/08 06:55:36;;;;;;;3.72;2.17;;;;;;;18.19;61.65;100428.81;7397996;19;20032;-66
2022/06/08 06:58:07;;;;;;;3.00;2.03;;;;;;;18.27;61.36;100430.19;7397586;19;20023;-67
2022/06/08 07:00:36;;;;;;;2.42;2.03;;;;;;;18.35;61.11;100431.44;7397725;19;20036;-68
2022/06/08 07:03:06;;;;;;;3.25;2.88;;;;;;;18.43;61.11;100430.13;7395839;19;20078;-68
2022/06/08 07:05:37;;;;;;;4.07;2.17;;;;;;;18.51;60.67;100433.16;7395994;19;20021;-68
2022/06/08 07:08:06;;;;;;;2.85;1.80;;;;;;;18.59;60.18;100422.94;7395409;19;20015;-68
2022/06/08 07:10:36;;;;;;;2.42;1.92;;;;;;;18.66;60.41;100423.41;7397234;19;20078;-68
2022/06/08 07:13:08;;;;;;;3.35;2.97;;;;;;;18.75;59.85;100427.31;7395579;19;20010;-68
2022/06/08 07:15:36;;;;;;;3.58;2.03;;;;;;;18.82;59.53;100426.84;7397034;19;20022;-68
2022/06/08 07:18:05;;;;;;;4.25;1.83;;;;;;;18.89;59.13;100422.88;7396730;19;20094;-68
2022/06/08 07:20:33;;;;;;;3.15;1.75;;;;;;;18.96;58.64;100418.06;7394881;19;20495;-67
2022/06/08 07:23:02;;;;;;;2.83;1.08;;;;;;;19.03;58.23;100419.38;7394921;19;20031;-67
2022/06/08 07:25:30;;;;;;;1.10;1.00;;;;;;;19.12;57.84;100420.63;7396958;19;20039;-68
2022/06/08 07:27:59;;;;;;;1.83;1.25;;;;;;;19.21;57.93;100413.88;7394837;19;20363;-67
2022/06/08 07:30:30;;;;;;;4.90;2.63;;;;;;;19.28;57.57;100416.97;7394910;19;20036;-66
2022/06/08 07:32:58;;;;;;;2.47;1.73;;;;;;;19.35;56.80;100415.66;7395211;19;20018;-68
2022/06/08 07:35:27;;;;;;;1.98;1.33;;;;;;;19.40;56.91;100420.66;7396268;19;20022;-67
2022/06/08 07:37:55;;;;;;;2.85;1.40;;;;;;;19.46;56.71;100417.59;7394638;19;20038;-67
2022/06/08 07:40:24;;;;;;;2.95;1.50;;;;;;;19.51;56.44;100413.72;7394271;19;20021;-67
2022/06/08 07:42:52;;;;;;;3.75;1.52;;;;;;;19.59;56.51;100418.53;7394233;19;20088;-67
2022/06/08 07:45:21;;;;;;;2.47;1.40;;;;;;;19.66;56.23;100411.00;7394368;19;20031;-67
2022/06/08 07:50:40;;;;;;;2.58;1.13;;;;;;;19.80;55.56;100395.00;7392708;19;20418;-68
2022/06/08 07:53:09;;;;;;;2.20;1.70;;;;;;;19.88;56.04;100402.50;7394561;19;20015;-68
2022/06/08 07:55:37;;;;;;;1.92;1.50;;;;;;;19.95;55.67;100400.28;7395974;19;20014;-68
2022/06/08 07:58:07;;;;;;;5.40;2.60;;;;;;;20.00;55.55;100399.03;7394607;19;20014;-68
2022/06/08 08:00:36;;;;;;;3.72;1.58;;;;;;;20.06;55.09;100394.25;7395898;19;20010;-68
2022/06/08 08:03:07;;;;;;;3.47;1.02;;;;;;;20.12;54.92;100397.34;7393142;19;20484;-67
2022/06/08 08:05:36;;;;;;;1.98;1.20;;;;;;;20.18;54.63;100398.72;7396173;19;20102;-67
2022/06/08 08:08:05;;;;;;;4.03;1.25;;;;;;;20.23;54.70;100409.91;7395361;19;20435;-67
2022/06/08 08:10:33;;;;;;;1.52;0.90;;;;;;;20.27;54.37;100394.56;7395608;19;20017;-67
2022/06/08 08:13:02;;;;;;;2.97;0.95;;;;;;;20.32;54.11;100395.09;7394199;19;20022;-67
2022/06/08 08:15:31;;;;;;;4.40;1.02;;;;;;;20.36;54.09;100396.63;7393791;19;20014;-67
2022/06/08 08:18:00;;;;;;;2.50;1.30;;;;;;;20.44;54.17;100390.78;7392745;19;20094;-67
2022/06/08 08:20:31;;;;;;;1.20;1.00;;;;;;;20.54;53.57;100386.50;7395000;19;20416;-67
2022/06/08 08:23:01;;;;;;;2.00;0.95;;;;;;;20.64;54.03;100392.06;7393485;19;20037;-67
2022/06/08 08:25:30;;;;;;;4.35;1.15;;;;;;;20.75;53.82;100388.66;7394317;19;20509;-68
2022/06/08 08:28:00;;;;;;;3.42;1.30;;;;;;;20.82;53.18;100382.78;7393153;19;20029;-67
2022/06/08 08:30:31;;;;;;;2.90;1.38;;;;;;;20.88;53.21;100380.63;7394619;19;20041;-67
2022/06/08 08:33:00;;;;;;;4.63;2.30;;;;;;;20.92;53.26;100376.81;7393370;19;20015;-67
2022/06/08 08:35:31;;;;;;;1.48;1.13;;;;;;;21.03;52.99;100381.34;7392189;19;20488;-67
2022/06/08 08:38:00;;;;;;;2.92;1.13;;;;;;;21.09;52.46;100381.78;7393290;19;20014;-68
2022/06/08 08:40:40;;;;;;;11.40;1.70;;;;;;;21.16;52.22;100382.19;7392275;19;20010;-67
2022/06/08 08:43:11;;;;;;;3.50;1.05;;;;;;;21.20;52.26;100375.66;7392766;19;20038;-67
2022/06/08 08:45:48;;;;;;;3.10;1.15;;;;;;;21.27;51.48;100376.94;7393076;19;20018;-68
2022/06/08 08:48:27;;;;;;;1.70;0.90;;;;;;;21.35;51.39;100381.72;7393693;19;20010;-67
2022/06/08 08:51:07;;;;;;;6.18;0.95;;;;;;;21.40;50.59;100378.72;7392417;19;20018;-68
2022/06/08 08:53:48;;;;;;;3.63;0.82;;;;;;;21.51;51.23;100372.56;7392799;19;20365;-67
2022/06/08 08:56:22;;;;;;;2.15;0.80;;;;;;;21.62;50.85;100376.19;7393985;19;20018;-68
2022/06/08 08:58:52;;;;;;;2.28;0.80;;;;;;;21.78;50.77;100367.03;7392466;19;20110;-68
2022/06/08 09:01:28;;;;;;;2.20;1.05;;;;;;;21.92;50.17;100363.31;7392108;19;20036;-66
2022/06/08 09:04:01;;;;;;;2.67;0.90;;;;;;;21.99;49.73;100359.22;7394294;19;20430;-66
2022/06/08 09:06:34;;;;;;;2.33;1.00;;;;;;;22.01;49.49;100362.63;7394311;19;20018;-66
2022/06/08 09:09:05;;;;;;;1.52;0.60;;;;;;;22.01;49.53;100359.09;7392672;19;20019;-67
2022/06/08 09:11:37;;;;;;;1.60;0.70;;;;;;;21.92;49.29;100356.16;7394163;19;20019;-67
2022/06/08 09:14:09;;;;;;;1.83;0.82;;;;;;;21.86;49.47;100369.97;7393289;19;20035;-66
2022/06/08 09:16:41;;;;;;;1.20;0.70;;;;;;;21.77;49.97;100351.97;7393524;19;20023;-68
2022/06/08 09:19:32;;;;;;;0.90;0.75;;;;;;;21.72;49.60;100349.66;7391691;19;20019;-67
2022/06/08 09:22:22;;;;;;;1.00;0.80;;;;;;;21.76;50.43;100347.59;7390673;19;20011;-67
2022/06/08 09:24:55;;;;;;;3.53;0.95;;;;;;;21.83;49.78;100340.84;7394090;19;20078;-67
2022/06/08 09:27:27;;;;;;;1.33;0.70;;;;;;;21.91;49.72;100338.47;7391542;19;20014;-68
2022/06/08 09:30:03;;;;;;;1.00;0.85;;;;;;;21.97;49.79;100339.78;7397106;19;20039;-67
2022/06/08 09:32:35;;;;;;;11.20;2.35;;;;;;;22.01;49.69;100341.25;7398000;19;20110;-68
2022/06/08 09:35:06;;;;;;;1.60;0.77;;;;;;;22.05;49.38;100332.06;7400251;19;20481;-67
2022/06/08 09:37:38;;;;;;;2.40;0.90;;;;;;;22.06;48.99;100320.38;7399889;19;20078;-67
2022/06/08 09:40:36;;;;;;;1.90;1.05;;;;;;;22.16;49.18;100327.69;7398081;19;20023;-68
2022/06/08 09:43:09;;;;;;;1.15;0.75;;;;;;;22.25;48.93;100321.63;7397814;19;20369;-68
2022/06/08 09:45:49;;;;;;;4.88;2.25;;;;;;;22.31;49.19;100321.16;7400958;19;20014;-68
2022/06/08 09:51:38;;;;;;;0.77;0.60;;;;;;;22.48;47.97;100319.84;7400132;19;20360;-69
2022/06/08 09:54:23;;;;;;;3.08;0.82;;;;;;;22.57;47.84;100304.91;7400253;19;20018;-68
2022/06/08 09:57:07;;;;;;;1.95;0.90;;;;;;;22.66;47.49;100304.19;7399813;19;20024;-68
2022/06/08 09:59:48;;;;;;;1.10;1.00;;;;;;;22.74;47.77;100301.75;7399587;19;20412;-68
2022/06/08 10:02:24;;;;;;;1.55;0.93;;;;;;;22.84;47.83;100293.00;7397386;19;20018;-68
2022/06/08 10:05:24;;;;;;;2.05;0.93;;;;;;;22.94;46.07;100299.31;7397452;19;20036;-68
2022/06/08 10:08:03;;;;;;;2.28;0.70;;;;;;;23.01;46.24;100292.47;7399854;19;20039;-67
2022/06/08 10:10:44;;;;;;;1.27;0.75;;;;;;;23.07;45.39;100294.63;7399065;19;20443;-67
2022/06/08 10:13:19;;;;;;;0.70;0.50;;;;;;;23.08;45.80;100284.81;7396714;19;20007;-68
2022/06/08 10:15:51;;;;;;;2.50;0.88;;;;;;;23.07;45.63;100283.94;7397486;19;20041;-67
2022/06/08 10:18:24;;;;;;;1.30;1.00;;;;;;;23.05;46.03;100280.56;7396922;19;20019;-67
2022/06/08 10:21:01;;;;;;;2.05;1.10;;;;;;;23.04;45.87;100291.38;7397026;19;20010;-67
2022/06/08 10:23:39;;;;;;;2.20;0.73;;;;;;;23.02;46.26;100283.47;7396323;19;20031;-67
2022/06/08 10:26:17;;;;;;;0.73;0.50;;;;;;;23.06;46.24;100281.41;7395660;19;20025;-68
2022/06/08 10:28:52;;;;;;;0.75;0.47;;;;;;;23.04;45.59;100280.69;7395137;19;20014;-68
2022/06/08 10:31:27;;;;;;;1.17;0.70;;;;;;;23.02;45.47;100279.94;7396007;19;20025;-67
2022/06/08 10:34:05;;;;;;;1.17;0.68;;;;;;;23.02;45.75;100277.28;7395073;19;20481;-67
2022/06/08 10:36:35;;;;;;;1.90;0.60;;;;;;;23.07;46.04;100275.06;7397926;19;20021;-68
2022/06/08 10:39:08;;;;;;;0.80;0.80;;;;;;;23.17;45.97;100265.34;7397998;19;20520;-67
2022/06/08 10:44:36;;;;;;;1.15;0.80;;;;;;;23.46;45.18;100263.91;7396208;19;20094;-68
2022/06/08 10:47:32;;;;;;;1.05;0.70;;;;;;;23.60;44.95;100250.19;7398621;19;20019;-67
2022/06/08 10:50:25;;;;;;;1.90;0.82;;;;;;;23.77;44.33;100246.09;7397184;19;20476;-68
2022/06/08 10:54:52;;;;;;;0.37;0.27;;;;;;;23.95;44.48;100243.69;7395294;19;20369;-67
2022/06/08 10:55:42;;;;;;;0.43;0.30;;;;;;;24.16;43.25;100246.34;7397130;19;20014;-67
2022/06/08 10:58:16;;;;;;;1.40;0.38;;;;;;;24.32;43.03;100251.19;7395089;19;20032;-67
2022/06/08 11:01:04;;;;;;;1.38;0.30;;;;;;;24.51;41.55;100234.31;7397717;19;20032;-68
2022/06/08 11:03:54;;;;;;;0.95;0.63;;;;;;;24.70;40.31;100238.94;7396636;19;20014;-67
2022/06/08 11:06:53;;;;;;;3.08;0.57;;;;;;;24.87;40.69;100237.44;7397412;19;20359;-67
2022/06/08 11:09:23;;;;;;;1.42;0.30;;;;;;;25.02;40.72;100237.00;7397179;19;20075;-68
2022/06/08 11:12:05;;;;;;;2.30;0.60;;;;;;;25.19;39.86;100238.16;7394792;19;20489;-68
2022/06/08 11:14:59;;;;;;;1.52;0.40;;;;;;;25.36;39.16;100233.94;7394857;19;20019;-68
2022/06/08 11:17:30;;;;;;;1.08;0.30;;;;;;;25.46;39.37;100228.56;7394709;19;20014;-67
2022/06/08 11:20:07;;;;;;;2.03;0.70;;;;;;;25.48;39.44;100230.13;7394436;19;20037;-67
2022/06/08 11:22:41;;;;;;;0.77;0.47;;;;;;;25.48;38.52;100227.44;7393008;19;20015;-68
2022/06/08 11:25:16;;;;;;;0.93;0.40;;;;;;;25.51;38.84;100231.69;7394022;19;20488;-67
2022/06/08 11:27:46;;;;;;;0.65;0.35;;;;;;;25.57;39.07;100230.28;7394042;19;20014;-67
2022/06/08 11:30:44;;;;;;;2.40;0.30;;;;;;;25.68;38.22;100211.31;7395692;19;20018;-67
2022/06/08 11:33:20;;;;;;;0.75;0.43;;;;;;;25.80;38.36;100223.56;7393831;19;20041;-67
2022/06/08 11:36:10;;;;;;;0.47;0.30;;;;;;;25.86;38.31;100216.78;7394313;19;20086;-67
2022/06/08 11:39:02;;;;;;;2.08;0.40;;;;;;;25.90;37.60;100220.00;7396265;19;20025;-67
2022/06/08 11:41:38;;;;;;;1.05;0.35;;;;;;;25.97;37.40;100216.59;7394030;19;20018;-67
2022/06/08 11:44:15;;;;;;;1.05;0.40;;;;;;;26.05;36.37;100217.72;7394455;19;20018;-67
2022/06/08 11:46:46;;;;;;;0.47;0.30;;;;;;;26.15;37.16;100214.00;7395059;19;20018;-67
2022/06/08 11:49:44;;;;;;;0.95;0.43;;;;;;;26.34;36.75;100201.47;7397022;19;20023;-67
2022/06/08 11:52:31;;;;;;;0.95;0.40;;;;;;;26.49;35.90;100194.59;7393636;19;20018;-67
2022/06/08 11:55:18;;;;;;;2.13;0.40;;;;;;;26.65;35.85;100191.25;7395127;19;20022;-67
2022/06/08 11:57:55;;;;;;;1.60;0.55;;;;;;;26.83;35.47;100195.84;7394933;19;20019;-67
2022/06/08 12:00:29;;;;;;;3.88;0.77;;;;;;;27.00;35.32;100188.75;7393738;19;20027;-67
2022/06/08 12:03:03;;;;;;;1.02;0.52;;;;;;;27.21;34.88;100187.59;7394884;19;20082;-67
2022/06/08 12:05:37;;;;;;;13.63;0.80;;;;;;;27.27;34.39;100190.53;7396085;19;20444;-67